Time;durP1;ratioP1;P1;durP2;ratioP2;P2;SDS_P1;SDS_P2;PMS_P1;PMS_P2;Temp;Humidity;BMP_temperature;BMP_pressure;BME280_temperature;BME280_humidity;BME280_pressure;Samples;Min_cycle;Max_cycle;Signal;HPM_P1;HPM_P2
2024/02/28 00:00:01;;;;;;;53.03;23.85;;;;;;;-146.25;100.00;52694.66;2089027;28;33576;-63
2024/02/28 00:01:06;;;;;;;54.65;24.88;;;;;;;-146.25;100.00;52678.44;2089437;28;20046;-63
2024/02/28 00:02:08;;;;;;;53.22;25.00;;;;;;;-146.25;100.00;52645.97;2088957;28;35994;-63
2024/02/28 00:03:09;;;;;;;50.38;24.33;;;;;;;-146.25;100.00;52684.50;2089039;28;35485;-63
2024/02/28 00:04:11;;;;;;;53.97;24.75;;;;;;;-146.25;100.00;52652.06;2089005;28;35219;-63
2024/02/28 00:05:13;;;;;;;49.08;23.13;;;;;;;-146.25;100.00;52672.34;2088527;28;35779;-63
2024/02/28 00:06:18;;;;;;;54.60;24.75;;;;;;;-146.25;100.00;52660.19;2088991;28;34571;-63
2024/02/28 00:07:19;;;;;;;52.97;23.80;;;;;;;-146.25;100.00;52672.34;2088792;28;34102;-63
2024/02/28 00:08:21;;;;;;;49.25;23.15;;;;;;;-146.25;100.00;52619.63;2088741;28;34787;-63
2024/02/28 00:09:23;;;;;;;54.17;25.02;;;;;;;-146.25;100.00;52682.47;2088567;28;32615;-62
2024/02/28 00:10:25;;;;;;;49.58;23.70;;;;;;;-146.25;100.00;52660.19;2088964;28;35304;-64
2024/02/28 00:11:27;;;;;;;47.78;22.38;;;;;;;-146.25;100.00;52637.88;2088826;28;34597;-63
2024/02/28 00:12:28;;;;;;;48.25;22.83;;;;;;;-146.25;100.00;52654.09;2088941;28;35181;-61
2024/02/28 00:13:30;;;;;;;52.75;24.30;;;;;;;-146.25;100.00;52660.19;2089072;28;29180;-61
2024/02/28 00:14:34;;;;;;;55.70;24.23;;;;;;;-146.25;100.00;52664.22;2088385;28;36245;-63
2024/02/28 00:15:36;;;;;;;58.53;24.45;;;;;;;-146.25;100.00;52633.81;2088767;28;32387;-61
2024/02/28 00:16:44;;;;;;;65.05;27.05;;;;;;;-146.25;100.00;52668.28;2088597;28;33961;-63
2024/02/28 00:17:46;;;;;;;59.03;24.92;;;;;;;-146.25;100.00;52660.19;2089059;28;32902;-63
2024/02/28 00:18:48;;;;;;;58.28;24.95;;;;;;;-146.25;100.00;52656.13;2089219;28;34926;-61
2024/02/28 00:19:50;;;;;;;58.90;25.30;;;;;;;-146.25;100.00;52648.00;2088682;28;34912;-63
2024/02/28 00:20:52;;;;;;;56.50;25.52;;;;;;;-146.25;100.00;52660.19;2088679;28;33906;-63
2024/02/28 00:21:53;;;;;;;59.33;25.35;;;;;;;-146.25;100.00;52682.47;2088998;28;33891;-63
2024/02/28 00:22:55;;;;;;;63.90;25.65;;;;;;;-146.25;100.00;52641.94;2088769;28;37561;-63
2024/02/28 00:23:57;;;;;;;63.25;26.08;;;;;;;-146.25;100.00;52712.91;2088932;28;31820;-63
2024/02/28 00:25:01;;;;;;;65.70;27.05;;;;;;;-146.25;100.00;52674.38;2088892;28;33201;-64
2024/02/28 00:26:02;;;;;;;64.38;26.52;;;;;;;-146.25;100.00;52643.97;2088540;28;38219;-63
2024/02/28 00:27:04;;;;;;;61.80;25.08;;;;;;;-146.25;100.00;52668.28;2089433;28;20057;-63
2024/02/28 00:28:06;;;;;;;68.72;26.52;;;;;;;-146.25;100.00;52605.44;2088732;28;33533;-62
2024/02/28 00:29:09;;;;;;;69.88;27.27;;;;;;;-146.25;100.00;52643.97;2089050;28;28756;-64
2024/02/28 00:30:11;;;;;;;59.28;25.25;;;;;;;-146.25;100.00;52664.22;2088693;28;33285;-62
2024/02/28 00:31:13;;;;;;;67.95;27.25;;;;;;;-146.25;100.00;52658.16;2087937;28;38020;-61
2024/02/28 00:32:17;;;;;;;60.90;24.75;;;;;;;-146.25;100.00;52654.09;2088734;28;36172;-62
2024/02/28 00:33:19;;;;;;;69.15;27.52;;;;;;;-146.25;100.00;52654.09;2088680;28;36622;-64
2024/02/28 00:34:20;;;;;;;66.47;26.15;;;;;;;-146.25;100.00;52696.69;2088724;28;35452;-62
2024/02/28 00:35:22;;;;;;;61.88;25.77;;;;;;;-146.25;100.00;52656.13;2088485;28;35478;-62
2024/02/28 00:36:24;;;;;;;68.25;26.27;;;;;;;-146.25;100.00;52643.97;2088788;28;37024;-64
2024/02/28 00:37:26;;;;;;;61.55;25.55;;;;;;;-146.25;100.00;52641.94;2088619;28;31588;-61
2024/02/28 00:38:27;;;;;;;61.33;25.73;;;;;;;-146.25;100.00;52700.72;2088226;28;34994;-61
2024/02/28 00:39:29;;;;;;;61.25;24.90;;;;;;;-146.25;100.00;52648.00;2089433;28;20049;-62
2024/02/28 00:40:31;;;;;;;69.35;26.27;;;;;;;-146.25;100.00;52664.22;2089021;28;34024;-62
2024/02/28 00:41:35;;;;;;;69.75;26.98;;;;;;;-146.25;100.00;52631.78;2088620;28;34347;-62
2024/02/28 00:42:37;;;;;;;62.65;25.70;;;;;;;-146.25;100.00;52625.72;2088860;28;32452;-61
2024/02/28 00:43:39;;;;;;;63.05;25.80;;;;;;;-146.25;100.00;52648.00;2088543;28;36202;-63
2024/02/28 00:44:42;;;;;;;62.03;24.45;;;;;;;-146.25;100.00;52680.47;2088779;28;34397;-62
2024/02/28 00:45:44;;;;;;;65.78;26.25;;;;;;;-146.25;100.00;52662.22;2088612;28;34097;-61
2024/02/28 00:46:46;;;;;;;68.72;25.48;;;;;;;-146.25;100.00;52668.28;2087812;28;36418;-62
2024/02/28 00:47:47;;;;;;;67.22;25.08;;;;;;;-146.25;100.00;52662.22;2088078;28;26713;-61
2024/02/28 00:48:49;;;;;;;69.70;27.15;;;;;;;-146.25;100.00;52662.22;2088640;28;36550;-62
2024/02/28 00:49:53;;;;;;;75.68;27.25;;;;;;;-146.25;100.00;52645.97;2088703;28;32282;-61
2024/02/28 00:50:55;;;;;;;71.13;26.88;;;;;;;-146.25;100.00;52623.69;2088283;28;34552;-61
2024/02/28 00:51:57;;;;;;;76.45;29.13;;;;;;;-146.25;100.00;52662.22;2088288;28;37535;-61
2024/02/28 00:52:59;;;;;;;74.00;27.55;;;;;;;-146.25;100.00;52662.22;2088875;28;30762;-64
2024/02/28 00:54:00;;;;;;;71.25;25.98;;;;;;;-146.25;100.00;52672.34;2088729;28;34727;-63
2024/02/28 00:55:05;;;;;;;65.72;24.65;;;;;;;-146.25;100.00;52680.47;2088218;28;37684;-63
2024/02/28 00:56:06;;;;;;;64.75;24.88;;;;;;;-146.25;100.00;52648.00;2088499;28;30531;-63
2024/02/28 00:57:08;;;;;;;62.10;25.05;;;;;;;-146.25;100.00;52629.75;2088227;28;35078;-63
2024/02/28 00:58:10;;;;;;;77.90;26.88;;;;;;;-146.25;100.00;52678.44;2088532;28;34538;-63
2024/02/28 00:59:12;;;;;;;72.60;26.65;;;;;;;-146.25;100.00;52716.97;2088443;28;29394;-64
2024/02/28 01:00:15;;;;;;;78.38;27.48;;;;;;;-146.25;100.00;52648.00;2088981;28;28207;-63
2024/02/28 01:01:16;;;;;;;71.95;27.05;;;;;;;-146.25;100.00;52625.72;2088554;28;31166;-63
2024/02/28 01:02:18;;;;;;;66.80;24.73;;;;;;;-146.25;100.00;52617.59;2088425;28;34678;-64
2024/02/28 01:03:20;;;;;;;76.97;25.92;;;;;;;-146.25;100.00;52650.03;2088942;28;31711;-64
2024/02/28 01:04:22;;;;;;;72.93;25.42;;;;;;;-146.25;100.00;52627.75;2088287;28;37722;-63
2024/02/28 01:05:24;;;;;;;62.83;23.15;;;;;;;-146.25;100.00;52631.78;2088318;28;35639;-63
2024/02/28 01:06:25;;;;;;;72.68;25.77;;;;;;;-146.25;100.00;52629.75;2088719;28;34708;-63
2024/02/28 01:07:27;;;;;;;81.07;28.23;;;;;;;-146.25;100.00;52595.28;2088202;28;33119;-63
2024/02/28 01:08:29;;;;;;;83.40;28.35;;;;;;;-146.25;100.00;52621.66;2088586;28;36744;-63
2024/02/28 01:09:31;;;;;;;74.65;27.60;;;;;;;-146.25;100.00;52643.97;2088735;28;22875;-63
2024/02/28 01:10:34;;;;;;;89.68;29.35;;;;;;;-146.25;100.00;52680.47;2088542;28;33186;-63
2024/02/28 01:11:35;;;;;;;81.90;29.20;;;;;;;-146.25;100.00;52686.53;2088769;28;32662;-63
2024/02/28 01:12:38;;;;;;;86.95;28.20;;;;;;;-146.25;100.00;52619.63;2088741;28;20911;-63
2024/02/28 01:13:40;;;;;;;80.22;28.55;;;;;;;-146.25;100.00;52666.25;2088610;28;37882;-63
2024/02/28 01:14:42;;;;;;;85.70;28.83;;;;;;;-146.25;100.00;52658.16;2089025;28;20771;-63
2024/02/28 01:15:43;;;;;;;81.90;28.17;;;;;;;-146.25;100.00;52670.31;2088243;28;35840;-63
2024/02/28 01:16:45;;;;;;;76.93;28.35;;;;;;;-146.25;100.00;52643.97;2088599;28;28295;-63
2024/02/28 01:17:47;;;;;;;90.75;29.77;;;;;;;-146.25;100.00;52643.97;2088088;28;33504;-63
2024/02/28 01:18:49;;;;;;;89.43;29.70;;;;;;;-146.25;100.00;52660.19;2088506;28;35649;-63
2024/02/28 01:19:51;;;;;;;89.13;29.38;;;;;;;-146.25;100.00;52676.41;2088306;28;37446;-63
2024/02/28 01:20:53;;;;;;;90.72;29.42;;;;;;;-146.25;100.00;52629.75;2095674;28;36144;-63
2024/02/28 01:21:55;;;;;;;87.18;29.92;;;;;;;-146.25;100.00;52652.06;2096025;28;34428;-63
2024/02/28 01:22:57;;;;;;;86.28;28.95;;;;;;;-146.25;100.00;52664.22;2088241;28;32603;-63
2024/02/28 01:23:59;;;;;;;78.00;28.25;;;;;;;-146.25;100.00;52641.94;2088623;28;36979;-63
2024/02/28 01:25:02;;;;;;;95.38;30.73;;;;;;;-146.25;100.00;52652.06;2088796;28;35905;-63
2024/02/28 01:26:05;;;;;;;98.50;30.27;;;;;;;-146.25;100.00;52656.13;2088468;28;32812;-63
2024/02/28 01:27:10;;;;;;;90.03;29.45;;;;;;;-146.25;100.00;52627.75;2088405;28;37147;-63
2024/02/28 01:28:12;;;;;;;88.88;29.85;;;;;;;-146.25;100.00;52650.03;2088797;28;20029;-63
2024/02/28 01:29:13;;;;;;;92.32;28.98;;;;;;;-146.25;100.00;52668.28;2088208;28;35686;-63
2024/02/28 01:30:15;;;;;;;91.22;29.42;;;;;;;-146.25;100.00;52682.47;2088636;28;30281;-63
2024/02/28 01:31:17;;;;;;;96.40;32.03;;;;;;;-146.25;100.00;52690.59;2088107;28;35833;-63
2024/02/28 01:32:19;;;;;;;90.15;29.65;;;;;;;-146.25;100.00;52648.00;2088171;28;38068;-63
2024/02/28 01:33:21;;;;;;;93.60;29.35;;;;;;;-146.25;100.00;52656.13;2087946;28;35550;-63
2024/02/28 01:34:23;;;;;;;104.20;31.58;;;;;;;-146.25;100.00;52607.47;2087975;28;35702;-63
2024/02/28 01:35:30;;;;;;;106.93;31.42;;;;;;;-146.25;100.00;52688.56;2087911;28;34592;-63
2024/02/28 01:36:32;;;;;;;91.05;29.38;;;;;;;-146.25;100.00;52670.31;2088099;28;33883;-63
2024/02/28 01:37:33;;;;;;;96.60;29.50;;;;;;;-146.25;100.00;52652.06;2088033;28;36743;-63
2024/02/28 01:38:35;;;;;;;96.47;29.77;;;;;;;-146.25;100.00;52686.53;2088303;28;37474;-63
2024/02/28 01:39:37;;;;;;;96.55;29.23;;;;;;;-146.25;100.00;52648.00;2088213;28;36364;-62
2024/02/28 01:40:44;;;;;;;96.85;29.50;;;;;;;-146.25;100.00;52656.13;2088259;28;35255;-63
2024/02/28 01:41:55;;;;;;;98.40;30.35;;;;;;;-146.25;100.00;52654.09;2088481;28;29372;-63
2024/02/28 01:43:23;;;;;;;100.70;29.48;;;;;;;-146.25;100.00;52678.44;2088284;28;36070;-63
2024/02/28 01:44:25;;;;;;;83.55;28.15;;;;;;;-146.25;100.00;52662.22;2085655;28;36971;-63
2024/02/28 01:45:29;;;;;;;93.82;29.15;;;;;;;-146.25;100.00;52641.94;2088799;28;20903;-63
2024/02/28 01:46:32;;;;;;;113.13;33.03;;;;;;;-146.25;100.00;52593.25;2088927;28;20045;-63
2024/02/28 01:47:37;;;;;;;109.63;32.42;;;;;;;-146.25;100.00;52656.13;2088791;28;33804;-63
2024/02/28 01:48:39;;;;;;;115.38;33.40;;;;;;;-146.25;100.00;52648.00;2088529;28;35504;-63
2024/02/28 01:49:43;;;;;;;109.35;32.63;;;;;;;-146.25;100.00;52623.69;2088249;28;30376;-62
2024/02/28 01:50:54;;;;;;;111.72;33.28;;;;;;;-146.25;100.00;52613.53;2087441;28;32266;-63
2024/02/28 01:51:56;;;;;;;114.13;34.13;;;;;;;-146.25;100.00;52641.94;2079646;28;32217;-63
2024/02/28 01:52:59;;;;;;;113.28;33.80;;;;;;;-146.25;100.00;52645.97;2079442;28;35460;-63
2024/02/28 01:54:01;;;;;;;101.38;32.45;;;;;;;-146.25;100.00;52619.63;2087555;28;38900;-63
2024/02/28 01:55:03;;;;;;;112.15;32.05;;;;;;;-146.25;100.00;52625.72;2087917;28;20041;-63
2024/02/28 01:56:06;;;;;;;123.75;35.35;;;;;;;-146.25;100.00;52654.09;2088508;28;25121;-63
2024/02/28 01:57:08;;;;;;;114.05;32.90;;;;;;;-146.25;100.00;52658.16;2088782;28;20159;-63
2024/02/28 01:58:11;;;;;;;122.57;33.88;;;;;;;-146.25;100.00;52648.00;2087769;28;33890;-63
2024/02/28 01:59:14;;;;;;;118.30;33.03;;;;;;;-146.25;100.00;52668.28;2088067;28;35874;-63
2024/02/28 02:00:17;;;;;;;129.32;35.25;;;;;;;-146.25;100.00;52694.66;2089004;28;20042;-62
2024/02/28 02:01:19;;;;;;;115.25;32.72;;;;;;;-146.25;100.00;52662.22;2087518;28;37252;-63
2024/02/28 02:02:26;;;;;;;113.50;33.28;;;;;;;-146.25;100.00;52664.22;2080918;28;20057;-63
2024/02/28 02:03:28;;;;;;;123.85;34.58;;;;;;;-146.25;100.00;52668.28;2087632;28;33083;-63
2024/02/28 02:04:29;;;;;;;125.47;35.70;;;;;;;-146.25;100.00;52652.06;2088070;28;35859;-63
2024/02/28 02:05:31;;;;;;;121.28;35.05;;;;;;;-146.25;100.00;52658.16;2087764;28;20037;-63
2024/02/28 02:06:38;;;;;;;134.88;36.53;;;;;;;-146.25;100.00;52635.84;2087249;28;34093;-63
2024/02/28 02:07:41;;;;;;;127.30;35.78;;;;;;;-146.25;100.00;52635.84;2088459;28;34759;-63
2024/02/28 02:08:47;;;;;;;130.18;33.97;;;;;;;-146.25;100.00;52684.50;2088379;28;20037;-63
2024/02/28 02:09:50;;;;;;;126.25;34.35;;;;;;;-146.25;100.00;52674.38;2088901;28;20049;-63
2024/02/28 02:10:54;;;;;;;125.45;34.10;;;;;;;-146.25;100.00;52654.09;2088743;28;30273;-63
2024/02/28 02:11:56;;;;;;;132.48;36.10;;;;;;;-146.25;100.00;52656.13;2088488;28;27359;-63
2024/02/28 02:13:07;;;;;;;143.43;35.88;;;;;;;-146.25;100.00;52654.09;2088136;28;33321;-63
2024/02/28 02:14:13;;;;;;;135.30;35.92;;;;;;;-146.25;100.00;52639.91;2088950;28;21043;-63
2024/02/28 02:15:15;;;;;;;135.63;35.78;;;;;;;-146.25;100.00;52645.97;2087416;28;34442;-63
2024/02/28 02:16:18;;;;;;;128.68;34.75;;;;;;;-146.25;100.00;52648.00;2087682;28;33096;-62
2024/02/28 02:17:20;;;;;;;128.00;35.67;;;;;;;-146.25;100.00;52672.34;2088147;28;35693;-63
2024/02/28 02:18:22;;;;;;;125.45;34.80;;;;;;;-146.25;100.00;52643.97;2087827;28;33970;-63
2024/02/28 02:19:27;;;;;;;142.45;36.63;;;;;;;-146.25;100.00;52637.88;2095425;28;32588;-62
2024/02/28 02:20:32;;;;;;;124.55;34.88;;;;;;;-146.25;100.00;52631.78;2094866;28;37143;-61
2024/02/28 02:21:51;;;;;;;130.98;35.30;;;;;;;-146.25;100.00;52625.72;2088009;28;20041;-63
2024/02/28 02:22:53;;;;;;;95.03;26.13;;;;;;;-146.25;100.00;52633.81;2087636;28;35469;-63
2024/02/28 02:23:55;;;;;;;130.68;34.20;;;;;;;-146.25;100.00;52668.28;2088121;28;36561;-63
2024/02/28 02:24:58;;;;;;;137.20;37.78;;;;;;;-146.25;100.00;52619.63;2088204;28;29253;-63
2024/02/28 02:26:00;;;;;;;129.35;35.83;;;;;;;-146.25;100.00;52672.34;2088048;28;32569;-63
2024/02/28 02:27:04;;;;;;;139.73;36.55;;;;;;;-146.25;100.00;52650.03;2088696;28;20076;-63
2024/02/28 02:28:09;;;;;;;129.75;37.25;;;;;;;-146.25;100.00;52676.41;2088151;28;25729;-63
2024/02/28 02:29:11;;;;;;;132.73;34.65;;;;;;;-146.25;100.00;52627.75;2087937;28;33673;-63
2024/02/28 02:30:15;;;;;;;146.75;37.55;;;;;;;-146.25;100.00;52674.38;2095779;28;33091;-63
2024/02/28 02:31:17;;;;;;;133.80;35.40;;;;;;;-146.25;100.00;52639.91;2094825;28;37955;-63
2024/02/28 02:32:18;;;;;;;128.93;36.15;;;;;;;-146.25;100.00;52629.75;2087652;28;36714;-63
2024/02/28 02:33:23;;;;;;;129.68;35.47;;;;;;;-146.25;100.00;52627.75;2088093;28;36097;-63
2024/02/28 02:34:24;;;;;;;141.43;37.70;;;;;;;-146.25;100.00;52631.78;2087813;28;34383;-63
2024/02/28 02:35:26;;;;;;;132.45;35.58;;;;;;;-146.25;100.00;52654.09;2088015;28;35349;-63
2024/02/28 02:36:28;;;;;;;122.82;34.97;;;;;;;-146.25;100.00;52631.78;2087513;28;38737;-63
2024/02/28 02:37:29;;;;;;;126.82;35.53;;;;;;;-146.25;100.00;52672.34;2087955;28;35275;-63
2024/02/28 02:38:31;;;;;;;128.30;35.97;;;;;;;-146.25;100.00;52668.28;2088009;28;35629;-63
2024/02/28 02:39:35;;;;;;;122.90;35.47;;;;;;;-146.25;100.00;52658.16;2088647;28;20156;-63
2024/02/28 02:40:37;;;;;;;118.35;33.28;;;;;;;-146.25;100.00;52678.44;2087795;28;37254;-63
2024/02/28 02:41:39;;;;;;;123.22;35.95;;;;;;;-146.25;100.00;52593.25;2087732;28;36756;-63
2024/02/28 02:42:40;;;;;;;119.05;35.50;;;;;;;-146.25;100.00;52668.28;2095257;28;36830;-63
2024/02/28 02:43:42;;;;;;;117.15;34.35;;;;;;;-146.25;100.00;52670.31;2095774;28;34590;-62
2024/02/28 02:44:44;;;;;;;109.50;33.63;;;;;;;-146.25;100.00;52650.03;2088215;28;20052;-62
2024/02/28 02:45:48;;;;;;;109.47;34.20;;;;;;;-146.25;100.00;52680.47;2088114;28;34313;-63
2024/02/28 02:46:50;;;;;;;113.93;34.55;;;;;;;-146.25;100.00;52664.22;2087919;28;33904;-63
2024/02/28 02:47:52;;;;;;;111.07;34.47;;;;;;;-146.25;100.00;52611.50;2087719;28;34047;-62
2024/02/28 02:48:54;;;;;;;117.32;34.28;;;;;;;-146.25;100.00;52648.00;2095188;28;35304;-63
2024/02/28 02:49:58;;;;;;;116.68;34.88;;;;;;;-146.25;100.00;52615.56;2095912;28;20041;-62
2024/02/28 02:51:00;;;;;;;121.25;36.60;;;;;;;-146.25;100.00;52627.75;2087741;28;35049;-62
2024/02/28 02:52:01;;;;;;;115.18;34.92;;;;;;;-146.25;100.00;52654.09;2087946;28;34858;-62
2024/02/28 02:53:03;;;;;;;114.78;34.15;;;;;;;-146.25;100.00;52658.16;2087993;28;29598;-62
2024/02/28 02:54:05;;;;;;;114.00;33.40;;;;;;;-146.25;100.00;52635.84;2088029;28;31072;-62
2024/02/28 02:55:07;;;;;;;111.82;33.70;;;;;;;-146.25;100.00;52633.81;2088245;28;35863;-62
2024/02/28 02:56:09;;;;;;;114.85;34.33;;;;;;;-146.25;100.00;52660.19;2088577;28;20042;-62
2024/02/28 02:57:11;;;;;;;110.97;33.03;;;;;;;-146.25;100.00;52631.78;2088122;28;32452;-62
2024/02/28 02:58:12;;;;;;;108.18;34.15;;;;;;;-146.25;100.00;52625.72;2087917;28;34043;-63
2024/02/28 02:59:14;;;;;;;109.60;33.65;;;;;;;-146.25;100.00;52627.75;2087769;28;34165;-62
2024/02/28 03:00:16;;;;;;;108.75;32.70;;;;;;;-146.25;100.00;52672.34;2087089;28;36834;-63
2024/02/28 03:01:19;;;;;;;116.60;35.28;;;;;;;-146.25;100.00;52650.03;2087611;28;35685;-62
2024/02/28 03:02:21;;;;;;;111.72;34.42;;;;;;;-146.25;100.00;52625.72;2087843;28;33994;-63
2024/02/28 03:03:23;;;;;;;114.00;35.15;;;;;;;-146.25;100.00;52637.88;2088248;28;20089;-62
2024/02/28 03:04:27;;;;;;;110.68;33.35;;;;;;;-146.25;100.00;52654.09;2087888;28;38267;-62
2024/02/28 03:05:29;;;;;;;105.20;33.08;;;;;;;-146.25;100.00;52670.31;2087184;28;36127;-62
2024/02/28 03:06:33;;;;;;;106.47;33.28;;;;;;;-146.25;100.00;52684.50;2087810;28;33447;-62
2024/02/28 03:07:35;;;;;;;104.40;33.28;;;;;;;-146.25;100.00;52658.16;2087810;28;37173;-62
2024/02/28 03:08:37;;;;;;;109.65;32.95;;;;;;;-146.25;100.00;52656.13;2087905;28;32846;-62
2024/02/28 03:09:39;;;;;;;103.63;32.80;;;;;;;-146.25;100.00;52645.97;2088339;28;36982;-62
2024/02/28 03:10:41;;;;;;;99.82;33.03;;;;;;;-146.25;100.00;52627.75;2088510;28;36922;-63
2024/02/28 03:11:43;;;;;;;105.22;32.85;;;;;;;-146.25;100.00;52643.97;2089199;28;35637;-62
2024/02/28 03:12:44;;;;;;;103.65;32.47;;;;;;;-146.25;100.00;52652.06;2089171;28;30953;-63
2024/02/28 03:13:46;;;;;;;102.15;33.65;;;;;;;-146.25;100.00;52631.78;2088710;28;37256;-62
2024/02/28 03:14:48;;;;;;;102.43;34.13;;;;;;;-146.25;100.00;52641.94;2089032;28;34661;-62
2024/02/28 03:15:50;;;;;;;104.70;32.05;;;;;;;-146.25;100.00;52648.00;2088987;28;34437;-62
2024/02/28 03:16:52;;;;;;;100.80;33.00;;;;;;;-146.25;100.00;52623.69;2089408;28;35049;-62
2024/02/28 03:17:54;;;;;;;96.88;31.08;;;;;;;-146.25;100.00;52639.91;2089354;28;31365;-63
2024/02/28 03:18:56;;;;;;;94.43;31.80;;;;;;;-146.25;100.00;52656.13;2089336;28;34140;-62
2024/02/28 03:19:58;;;;;;;99.40;32.13;;;;;;;-146.25;100.00;52668.28;2088971;28;36192;-62
2024/02/28 03:21:00;;;;;;;101.15;32.03;;;;;;;-146.25;100.00;52682.47;2089268;28;31405;-63
2024/02/28 03:22:02;;;;;;;95.93;31.00;;;;;;;-146.25;100.00;52670.31;2089217;28;37222;-62
2024/02/28 03:23:06;;;;;;;98.78;30.85;;;;;;;-146.25;100.00;52648.00;2089392;28;31471;-62
2024/02/28 03:24:07;;;;;;;101.10;31.10;;;;;;;-146.25;100.00;52702.75;2089064;28;34150;-63
2024/02/28 03:25:10;;;;;;;97.50;31.95;;;;;;;-146.25;100.00;52682.47;2096640;28;37560;-62
2024/02/28 03:26:13;;;;;;;99.90;30.85;;;;;;;-146.25;100.00;52621.66;2088531;28;32858;-63
2024/02/28 03:27:15;;;;;;;94.10;31.40;;;;;;;-146.25;100.00;52688.56;2088346;28;36647;-62
2024/02/28 03:28:17;;;;;;;94.30;30.67;;;;;;;-146.25;100.00;52660.19;2089526;28;33608;-62
2024/02/28 03:29:19;;;;;;;96.95;30.65;;;;;;;-146.25;100.00;52664.22;2089362;28;34005;-63
2024/02/28 03:30:21;;;;;;;91.57;30.55;;;;;;;-146.25;100.00;52664.22;2089026;28;35757;-63
2024/02/28 03:31:22;;;;;;;94.80;30.48;;;;;;;-146.25;100.00;52688.56;2088778;28;33315;-63
2024/02/28 03:32:24;;;;;;;91.55;31.23;;;;;;;-146.25;100.00;52662.22;2088884;28;36418;-63
2024/02/28 03:33:26;;;;;;;100.35;31.52;;;;;;;-146.25;100.00;52635.84;2097495;28;20104;-63
2024/02/28 03:34:30;;;;;;;98.43;31.10;;;;;;;-146.25;100.00;52652.06;2096555;28;36200;-63
2024/02/28 03:35:32;;;;;;;94.13;30.50;;;;;;;-146.25;100.00;52643.97;2096425;28;33950;-63
2024/02/28 03:36:35;;;;;;;92.03;29.75;;;;;;;-146.25;100.00;52611.50;2096520;28;32298;-62
2024/02/28 03:37:36;;;;;;;102.47;30.98;;;;;;;-146.25;100.00;52623.69;2088869;28;37845;-63
2024/02/28 03:38:38;;;;;;;98.68;30.17;;;;;;;-146.25;100.00;52617.59;2089105;28;34402;-63
2024/02/28 03:39:40;;;;;;;96.38;29.88;;;;;;;-146.25;100.00;52670.31;2089343;28;38482;-63
2024/02/28 03:40:42;;;;;;;91.25;29.27;;;;;;;-146.25;100.00;52656.13;2088857;28;32428;-63
2024/02/28 03:41:44;;;;;;;85.93;28.70;;;;;;;-146.25;100.00;52650.03;2088882;28;35444;-63
2024/02/28 03:42:46;;;;;;;89.55;30.05;;;;;;;-146.25;100.00;52619.63;2089064;28;35769;-63
2024/02/28 03:43:47;;;;;;;87.32;29.30;;;;;;;-146.25;100.00;52621.66;2089256;28;36917;-63
2024/02/28 03:44:49;;;;;;;89.90;29.80;;;;;;;-146.25;100.00;52635.84;2089017;28;31386;-63
2024/02/28 03:45:53;;;;;;;89.70;29.23;;;;;;;-146.25;100.00;52639.91;2089429;28;20042;-63
2024/02/28 03:46:55;;;;;;;92.97;29.25;;;;;;;-146.25;100.00;52668.28;2096910;28;33038;-63
2024/02/28 03:47:57;;;;;;;84.70;27.65;;;;;;;-146.25;100.00;52668.28;2096776;28;37179;-63
2024/02/28 03:48:58;;;;;;;93.13;29.80;;;;;;;-146.25;100.00;52645.97;2089088;28;34166;-63
2024/02/28 03:50:03;;;;;;;88.15;28.73;;;;;;;-146.25;100.00;52680.47;2089020;28;34670;-63
2024/02/28 03:51:05;;;;;;;91.22;28.27;;;;;;;-146.25;100.00;52641.94;2088641;28;33662;-63
2024/02/28 03:52:07;;;;;;;89.82;28.42;;;;;;;-146.25;100.00;52650.03;2089089;28;32463;-63
2024/02/28 03:53:09;;;;;;;82.63;27.05;;;;;;;-146.25;100.00;52680.47;2089171;28;36012;-63
2024/02/28 03:54:10;;;;;;;80.95;27.15;;;;;;;-146.25;100.00;52648.00;2089084;28;33112;-63
2024/02/28 03:55:12;;;;;;;89.18;28.38;;;;;;;-146.25;100.00;52664.22;2089012;28;32189;-63
2024/02/28 03:56:25;;;;;;;87.18;27.95;;;;;;;-146.25;100.00;52623.69;2088831;28;31310;-63
2024/02/28 03:57:27;;;;;;;80.72;28.23;;;;;;;-146.25;100.00;52643.97;2088293;28;33363;-63
2024/02/28 03:58:29;;;;;;;81.28;27.13;;;;;;;-146.25;100.00;52668.28;2088243;28;34726;-63
2024/02/28 03:59:30;;;;;;;89.97;28.20;;;;;;;-146.25;100.00;52648.00;2088765;28;36974;-63
2024/02/28 04:00:35;;;;;;;92.30;28.60;;;;;;;-146.25;100.00;52611.50;2089274;28;31463;-63
2024/02/28 04:01:37;;;;;;;87.88;28.00;;;;;;;-146.25;100.00;52627.75;2089118;28;36955;-63
2024/02/28 04:02:39;;;;;;;100.07;28.95;;;;;;;-146.25;100.00;52631.78;2089509;28;20091;-63
2024/02/28 04:03:41;;;;;;;95.68;28.65;;;;;;;-146.25;100.00;52643.97;2089758;28;20077;-62
2024/02/28 04:04:45;;;;;;;88.85;28.67;;;;;;;-146.25;100.00;52641.94;2089496;28;20144;-63
2024/02/28 04:05:47;;;;;;;89.65;28.20;;;;;;;-146.25;100.00;52629.75;2088321;28;32900;-63
2024/02/28 04:06:49;;;;;;;96.35;28.60;;;;;;;-146.25;100.00;52688.56;2089008;28;30305;-63
2024/02/28 04:07:53;;;;;;;100.45;28.20;;;;;;;-146.25;100.00;52672.34;2088803;28;38207;-63
2024/02/28 04:08:54;;;;;;;102.40;27.95;;;;;;;-146.25;100.00;52583.13;2097243;28;20037;-63
2024/02/28 04:09:56;;;;;;;93.57;28.63;;;;;;;-146.25;100.00;52633.81;2096317;28;32900;-63
2024/02/28 04:10:58;;;;;;;91.35;28.20;;;;;;;-146.25;100.00;52680.47;2089148;28;33621;-63
2024/02/28 04:12:00;;;;;;;109.90;29.50;;;;;;;-146.25;100.00;52668.28;2089445;28;20034;-63
2024/02/28 04:13:04;;;;;;;88.43;27.95;;;;;;;-146.25;100.00;52635.84;2088648;28;38542;-63
2024/02/28 04:14:05;;;;;;;106.20;29.73;;;;;;;-146.25;100.00;52635.84;2088962;28;33650;-63
2024/02/28 04:15:08;;;;;;;99.80;28.35;;;;;;;-146.25;100.00;52716.97;2088602;28;32988;-63
2024/02/28 04:16:12;;;;;;;101.60;27.70;;;;;;;-146.25;100.00;52643.97;2088718;28;34934;-63
2024/02/28 04:17:14;;;;;;;101.75;29.67;;;;;;;-146.25;100.00;52621.66;2088549;28;36380;-63
2024/02/28 04:18:18;;;;;;;100.55;28.38;;;;;;;-146.25;100.00;52648.00;2088821;28;34371;-63
2024/02/28 04:19:20;;;;;;;103.28;29.17;;;;;;;-146.25;100.00;52670.31;2088677;28;34457;-62
2024/02/28 04:20:22;;;;;;;106.65;29.63;;;;;;;-146.25;100.00;52676.41;2088785;28;33571;-63
2024/02/28 04:21:23;;;;;;;95.50;29.25;;;;;;;-146.25;100.00;52652.06;2088451;28;36349;-63
2024/02/28 04:22:25;;;;;;;100.40;30.70;;;;;;;-146.25;100.00;52648.00;2088859;28;34768;-63
2024/02/28 04:23:27;;;;;;;98.60;27.67;;;;;;;-146.25;100.00;52643.97;2088616;28;35765;-62
2024/02/28 04:24:29;;;;;;;102.25;30.50;;;;;;;-146.25;100.00;52680.47;2089069;28;36785;-63
2024/02/28 04:25:30;;;;;;;100.20;29.17;;;;;;;-146.25;100.00;52643.97;2088770;28;33957;-62
2024/02/28 04:26:35;;;;;;;96.22;27.20;;;;;;;-146.25;100.00;52660.19;2088649;28;36761;-63
2024/02/28 04:27:37;;;;;;;103.97;30.38;;;;;;;-146.25;100.00;52656.13;2088751;28;31873;-63
2024/02/28 04:28:41;;;;;;;104.50;29.85;;;;;;;-146.25;100.00;52676.41;2089173;28;20042;-63
2024/02/28 04:29:43;;;;;;;116.25;29.05;;;;;;;-146.25;100.00;52656.13;2088976;28;36190;-63
2024/02/28 04:30:45;;;;;;;111.45;28.45;;;;;;;-146.25;100.00;52660.19;2088872;28;35285;-63
2024/02/28 04:31:46;;;;;;;106.82;30.27;;;;;;;-146.25;100.00;52621.66;2088570;28;35906;-63
2024/02/28 04:32:48;;;;;;;105.90;29.80;;;;;;;-146.25;100.00;52631.78;2088544;28;36484;-63
2024/02/28 04:33:52;;;;;;;103.10;29.52;;;;;;;-146.25;100.00;52639.91;2088799;28;35121;-63
2024/02/28 04:34:54;;;;;;;104.97;30.23;;;;;;;-146.25;100.00;52668.28;2088196;28;35421;-62
2024/02/28 04:35:56;;;;;;;134.23;31.95;;;;;;;-146.25;100.00;52648.00;2088428;28;39353;-63
2024/02/28 04:36:57;;;;;;;115.15;31.60;;;;;;;-146.25;100.00;52660.19;2089125;28;20133;-63